Time;durP1;ratioP1;P1;durP2;ratioP2;P2;SDS_P1;SDS_P2;PMS_P1;PMS_P2;Temp;Humidity;BMP_temperature;BMP_pressure;BME280_temperature;BME280_humidity;BME280_pressure;Samples;Min_cycle;Max_cycle;Signal;HPM_P1;HPM_P2
2022/06/24 00:00:03;;;;;;;7.18;4.90;;;;;;;;;;5024539;28;20108;-64
2022/06/24 00:02:30;;;;;;;9.07;4.80;;;;;;;;;;5026525;28;20562;-64
2022/06/24 00:04:59;;;;;;;9.98;5.10;;;;;;;;;;5035020;28;20050;-64
2022/06/24 00:07:25;;;;;;;11.98;5.50;;;;;;;;;;5033056;28;20049;-64
2022/06/24 00:09:52;;;;;;;8.35;5.50;;;;;;;;;;5044764;28;20492;-64
2022/06/24 00:12:20;;;;;;;9.15;5.72;;;;;;;;;;5021917;28;20076;-64
2022/06/24 00:14:56;;;;;;;7.45;5.22;;;;;;;;;;5033611;28;20345;-64
2022/06/24 00:17:25;;;;;;;8.95;5.50;;;;;;;;;;5035154;28;20044;-64
2022/06/24 00:19:55;;;;;;;11.77;5.97;;;;;;;;;;5026766;28;20140;-63
2022/06/24 00:22:21;;;;;;;7.00;5.97;;;;;;;;;;5027571;28;20125;-64
2022/06/24 00:24:48;;;;;;;10.20;5.93;;;;;;;;;;5025861;28;20156;-64
2022/06/24 00:27:24;;;;;;;8.30;5.90;;;;;;;;;;5030064;28;20092;-64
2022/06/24 00:29:51;;;;;;;8.98;5.97;;;;;;;;;;5022345;28;20445;-64
2022/06/24 00:32:31;;;;;;;10.55;5.40;;;;;;;;;;5033644;28;20045;-64
2022/06/24 00:35:05;;;;;;;8.93;5.63;;;;;;;;;;5017634;28;20050;-64
2022/06/24 00:37:32;;;;;;;11.75;6.18;;;;;;;;;;5039584;28;21299;-64
2022/06/24 00:40:00;;;;;;;11.83;6.47;;;;;;;;;;5038045;28;20055;-65
2022/06/24 00:42:27;;;;;;;10.45;6.57;;;;;;;;;;5021951;28;20053;-63
2022/06/24 00:45:06;;;;;;;10.37;6.70;;;;;;;;;;5043231;28;20893;-64
2022/06/24 00:47:33;;;;;;;11.80;6.75;;;;;;;;;;5038244;28;20055;-65
2022/06/24 00:50:02;;;;;;;11.10;7.20;;;;;;;;;;5039756;28;20048;-64
2022/06/24 00:52:28;;;;;;;10.65;7.75;;;;;;;;;;5034241;28;20060;-64
2022/06/24 00:54:55;;;;;;;10.90;7.55;;;;;;;;;;5036172;28;20061;-65
2022/06/24 00:57:21;;;;;;;10.13;6.88;;;;;;;;;;5036425;28;20103;-64
2022/06/24 00:59:48;;;;;;;11.68;7.25;;;;;;;;;;5035209;28;20509;-64
2022/06/24 01:02:16;;;;;;;10.52;7.45;;;;;;;;;;5037620;28;20057;-65
2022/06/24 01:04:43;;;;;;;12.10;8.02;;;;;;;;;;5018614;28;20079;-64
2022/06/24 01:07:09;;;;;;;12.20;7.60;;;;;;;;;;5030761;28;20132;-64
2022/06/24 01:09:36;;;;;;;11.50;7.82;;;;;;;;;;5029154;28;20488;-65
2022/06/24 01:12:02;;;;;;;13.98;8.95;;;;;;;;;;5022112;28;20871;-64
2022/06/24 01:14:28;;;;;;;12.55;9.45;;;;;;;;;;5039380;28;20083;-64
2022/06/24 01:16:55;;;;;;;15.43;10.77;;;;;;;;;;5016975;28;20440;-65
2022/06/24 01:19:21;;;;;;;14.48;10.90;;;;;;;;;;5040565;28;20060;-64
2022/06/24 01:21:48;;;;;;;15.82;12.77;;;;;;;;;;5023626;28;20045;-64
2022/06/24 01:24:16;;;;;;;17.40;11.93;;;;;;;;;;5028822;28;20133;-64
2022/06/24 01:26:44;;;;;;;14.50;9.98;;;;;;;;;;5040348;28;20497;-64
2022/06/24 01:29:17;;;;;;;15.63;10.52;;;;;;;;;;5030355;28;20460;-64
2022/06/24 01:31:45;;;;;;;12.63;10.90;;;;;;;;;;5034903;28;20473;-65
2022/06/24 01:34:11;;;;;;;;;;;;;;;;;;5035281;28;20045;-64
2022/06/24 01:36:38;;;;;;;13.38;10.52;;;;;;;;;;5037085;28;20023;-64
2022/06/24 01:39:05;;;;;;;13.63;10.43;;;;;;;;;;5024487;28;20612;-64
2022/06/24 01:41:31;;;;;;;15.73;11.13;;;;;;;;;;5040094;28;20059;-64
2022/06/24 01:43:58;;;;;;;15.23;10.15;;;;;;;;;;5041898;28;20144;-65
2022/06/24 01:46:25;;;;;;;13.43;11.00;;;;;;;;;;5028209;28;20053;-64
2022/06/24 01:48:51;;;;;;;16.20;11.50;;;;;;;;;;5036499;28;20056;-65
2022/06/24 01:51:19;;;;;;;15.00;10.23;;;;;;;;;;5019995;28;20538;-64
2022/06/24 01:53:45;;;;;;;12.23;9.40;;;;;;;;;;5035551;28;20353;-64
2022/06/24 01:56:12;;;;;;;11.95;8.15;;;;;;;;;;5037567;28;20053;-65
2022/06/24 01:58:38;;;;;;;11.73;9.30;;;;;;;;;;5030370;28;20067;-64
2022/06/24 02:01:05;;;;;;;11.85;8.15;;;;;;;;;;5040629;28;20437;-64
2022/06/24 02:03:32;;;;;;;11.73;7.45;;;;;;;;;;5029944;28;20048;-64
2022/06/24 02:06:02;;;;;;;13.27;8.43;;;;;;;;;;5029017;28;20052;-64
2022/06/24 02:08:28;;;;;;;11.63;9.25;;;;;;;;;;5024889;28;20057;-64
2022/06/24 02:13:40;;;;;;;16.65;10.20;;;;;;;;;;5027590;28;20083;-64
2022/06/24 02:16:07;;;;;;;13.25;11.10;;;;;;;;;;5017049;28;20508;-64
2022/06/24 02:18:33;;;;;;;15.18;10.90;;;;;;;;;;5033586;28;20056;-64
2022/06/24 02:21:00;;;;;;;32.08;10.57;;;;;;;;;;5021803;28;20059;-64
2022/06/24 02:23:26;;;;;;;15.73;8.50;;;;;;;;;;5027135;28;20128;-62
2022/06/24 02:25:53;;;;;;;27.23;10.05;;;;;;;;;;5029770;28;20060;-61
2022/06/24 02:28:20;;;;;;;28.35;7.43;;;;;;;;;;5032489;28;20053;-63
2022/06/24 02:30:47;;;;;;;10.98;5.93;;;;;;;;;;5037176;28;20167;-63
2022/06/24 02:33:14;;;;;;;10.43;5.40;;;;;;;;;;5014009;28;20049;-63
2022/06/24 02:35:40;;;;;;;9.65;4.93;;;;;;;;;;5037138;28;21339;-63
2022/06/24 02:38:07;;;;;;;9.20;5.13;;;;;;;;;;5032570;28;20045;-63
2022/06/24 02:40:46;;;;;;;10.77;5.65;;;;;;;;;;5028452;28;20045;-64
2022/06/24 02:43:12;;;;;;;8.65;5.22;;;;;;;;;;5018332;28;20043;-63
2022/06/24 02:45:39;;;;;;;6.90;4.75;;;;;;;;;;5039867;28;20049;-63
2022/06/24 02:48:07;;;;;;;8.73;4.30;;;;;;;;;;5038370;28;20123;-62
2022/06/24 02:50:43;;;;;;;7.00;4.13;;;;;;;;;;5027026;28;20261;-63
2022/06/24 02:53:12;;;;;;;8.10;4.47;;;;;;;;;;5041026;28;20051;-63
2022/06/24 02:55:38;;;;;;;10.32;4.65;;;;;;;;;;5024883;28;20053;-63
2022/06/24 02:58:05;;;;;;;12.30;5.03;;;;;;;;;;5034527;28;20074;-63
2022/06/24 03:00:31;;;;;;;9.80;4.95;;;;;;;;;;5031496;28;20045;-63
2022/06/24 03:02:58;;;;;;;6.25;3.65;;;;;;;;;;5046450;28;20448;-63
2022/06/24 03:05:24;;;;;;;7.38;4.20;;;;;;;;;;5030346;28;20445;-64
2022/06/24 03:07:51;;;;;;;7.68;3.60;;;;;;;;;;5028108;28;20056;-62
2022/06/24 03:10:17;;;;;;;6.53;3.70;;;;;;;;;;5034261;28;20497;-64
2022/06/24 03:12:43;;;;;;;6.22;3.28;;;;;;;;;;5020046;28;20049;-64
2022/06/24 03:15:10;;;;;;;6.15;2.85;;;;;;;;;;5022709;28;20045;-64
2022/06/24 03:17:37;;;;;;;4.22;2.88;;;;;;;;;;5021546;28;20512;-63
2022/06/24 03:20:07;;;;;;;3.85;2.45;;;;;;;;;;5033154;28;20045;-62
2022/06/24 03:22:33;;;;;;;4.38;2.70;;;;;;;;;;5038030;28;20054;-63
2022/06/24 03:25:00;;;;;;;6.32;2.90;;;;;;;;;;5019571;28;20069;-64
2022/06/24 03:27:26;;;;;;;5.22;3.00;;;;;;;;;;5030909;28;20346;-64
2022/06/24 03:29:53;;;;;;;5.03;2.58;;;;;;;;;;5020106;28;20054;-63
2022/06/24 03:32:19;;;;;;;4.00;2.47;;;;;;;;;;5041512;28;20051;-63
2022/06/24 03:34:46;;;;;;;4.85;2.25;;;;;;;;;;5045834;28;20044;-65
2022/06/24 03:37:12;;;;;;;4.07;2.53;;;;;;;;;;5021356;28;20320;-64
2022/06/24 03:39:39;;;;;;;3.83;2.20;;;;;;;;;;5040252;28;20049;-63
2022/06/24 03:42:05;;;;;;;4.72;1.85;;;;;;;;;;5032400;28;20079;-64
2022/06/24 03:44:32;;;;;;;3.95;2.20;;;;;;;;;;5033722;28;20103;-65
2022/06/24 03:46:58;;;;;;;5.18;2.40;;;;;;;;;;5038557;28;20383;-64
2022/06/24 03:49:24;;;;;;;5.43;2.20;;;;;;;;;;5038859;28;20078;-64
2022/06/24 03:51:51;;;;;;;5.18;2.42;;;;;;;;;;5038154;28;20140;-64
2022/06/24 03:54:17;;;;;;;4.75;2.40;;;;;;;;;;5019350;28;20057;-64
2022/06/24 03:56:43;;;;;;;4.93;2.42;;;;;;;;;;5040641;28;20545;-64
2022/06/24 03:59:10;;;;;;;4.43;2.60;;;;;;;;;;5045091;28;20059;-64
2022/06/24 04:01:37;;;;;;;3.83;2.55;;;;;;;;;;5039214;28;20163;-64
2022/06/24 04:04:04;;;;;;;6.55;2.50;;;;;;;;;;5032989;28;20083;-64
2022/06/24 04:06:30;;;;;;;4.05;2.50;;;;;;;;;;5019680;28;20192;-64
2022/06/24 04:08:57;;;;;;;5.00;2.47;;;;;;;;;;5030643;28;20050;-62
2022/06/24 04:11:23;;;;;;;4.90;2.10;;;;;;;;;;5030659;28;20045;-63
2022/06/24 04:13:49;;;;;;;4.50;2.28;;;;;;;;;;5037644;28;20480;-65
2022/06/24 04:16:16;;;;;;;2.95;1.92;;;;;;;;;;5021781;28;20459;-64
2022/06/24 04:18:42;;;;;;;2.92;1.80;;;;;;;;;;5028430;28;20360;-64
2022/06/24 04:21:12;;;;;;;3.92;2.13;;;;;;;;;;5019016;28;20136;-64
2022/06/24 04:23:39;;;;;;;3.75;1.92;;;;;;;;;;5031923;28;20520;-64
2022/06/24 04:26:06;;;;;;;5.07;2.20;;;;;;;;;;5039924;28;20128;-66
2022/06/24 04:28:32;;;;;;;3.63;2.22;;;;;;;;;;5029453;28;20083;-63
2022/06/24 04:30:59;;;;;;;4.28;2.13;;;;;;;;;;5036198;28;20053;-63
2022/06/24 04:33:25;;;;;;;2.72;2.08;;;;;;;;;;5019697;28;20053;-64
2022/06/24 04:35:51;;;;;;;4.18;2.28;;;;;;;;;;5031298;28;20080;-64
2022/06/24 04:38:18;;;;;;;4.50;2.40;;;;;;;;;;5040523;28;20157;-64
2022/06/24 04:40:44;;;;;;;4.72;2.10;;;;;;;;;;5033270;28;20049;-64
2022/06/24 04:43:12;;;;;;;4.40;2.45;;;;;;;;;;5038044;28;20041;-64
2022/06/24 04:45:39;;;;;;;5.30;2.63;;;;;;;;;;5030351;28;20433;-63
2022/06/24 04:48:05;;;;;;;5.68;2.53;;;;;;;;;;5029352;28;20048;-64
2022/06/24 04:50:32;;;;;;;7.00;2.22;;;;;;;;;;5034967;28;20413;-62
2022/06/24 04:52:59;;;;;;;5.68;2.55;;;;;;;;;;5032070;28;20127;-63
2022/06/24 04:55:25;;;;;;;3.40;2.22;;;;;;;;;;5034069;28;20048;-64
2022/06/24 04:57:51;;;;;;;5.05;2.50;;;;;;;;;;5021644;28;20063;-63
2022/06/24 05:00:18;;;;;;;4.28;2.70;;;;;;;;;;5035114;28;20048;-64
2022/06/24 05:02:44;;;;;;;5.22;2.35;;;;;;;;;;5024912;28;20049;-64
2022/06/24 05:05:11;;;;;;;8.13;2.88;;;;;;;;;;5028763;28;20506;-64
2022/06/24 05:07:38;;;;;;;8.82;2.55;;;;;;;;;;5027705;28;20049;-64
2022/06/24 05:10:05;;;;;;;5.90;2.30;;;;;;;;;;5020198;28;20045;-64
2022/06/24 05:12:31;;;;;;;4.50;2.65;;;;;;;;;;5030290;28;20425;-64
2022/06/24 05:14:59;;;;;;;4.27;2.30;;;;;;;;;;5022153;28;20084;-64
2022/06/24 05:17:26;;;;;;;5.78;2.15;;;;;;;;;;5042300;28;20084;-64
2022/06/24 05:19:52;;;;;;;4.07;2.30;;;;;;;;;;5030418;28;20123;-65
2022/06/24 05:22:19;;;;;;;6.60;2.70;;;;;;;;;;5033779;28;20269;-64
2022/06/24 05:24:46;;;;;;;4.50;2.70;;;;;;;;;;5026472;28;20085;-64
2022/06/24 05:27:12;;;;;;;4.70;2.60;;;;;;;;;;5021305;28;20049;-63
2022/06/24 05:29:38;;;;;;;5.82;2.80;;;;;;;;;;5025940;28;20049;-64
2022/06/24 05:32:05;;;;;;;5.35;2.78;;;;;;;;;;5030636;28;20052;-64
2022/06/24 05:34:31;;;;;;;5.18;2.42;;;;;;;;;;5042117;28;20737;-64
2022/06/24 05:36:57;;;;;;;4.47;2.20;;;;;;;;;;5022354;28;20140;-63
2022/06/24 05:39:24;;;;;;;5.45;2.38;;;;;;;;;;5025820;28;20387;-64
2022/06/24 05:41:50;;;;;;;5.20;2.50;;;;;;;;;;5030531;28;20047;-64
2022/06/24 05:44:16;;;;;;;5.85;2.50;;;;;;;;;;5016779;28;20136;-63
2022/06/24 05:46:43;;;;;;;4.43;2.80;;;;;;;;;;5026223;28;20453;-64
2022/06/24 05:49:09;;;;;;;4.20;2.60;;;;;;;;;;5015783;28;20045;-63
2022/06/24 05:51:36;;;;;;;4.47;2.70;;;;;;;;;;5034568;28;20625;-64
2022/06/24 05:56:48;;;;;;;5.97;3.03;;;;;;;;;;5040534;28;20048;-63
2022/06/24 05:59:14;;;;;;;5.80;2.65;;;;;;;;;;5041763;28;20059;-63
2022/06/24 06:01:41;;;;;;;4.57;2.58;;;;;;;;;;5032928;28;20041;-63
2022/06/24 06:04:07;;;;;;;6.78;2.92;;;;;;;;;;5029445;28;20132;-64
2022/06/24 06:06:37;;;;;;;5.65;3.30;;;;;;;;;;5028454;28;20513;-63
2022/06/24 06:09:03;;;;;;;4.53;3.10;;;;;;;;;;5038864;28;20064;-64
2022/06/24 06:11:29;;;;;;;5.78;3.20;;;;;;;;;;5040265;28;20532;-64
2022/06/24 06:13:56;;;;;;;5.53;3.25;;;;;;;;;;5033592;28;20662;-63
2022/06/24 06:16:22;;;;;;;3.67;2.75;;;;;;;;;;5022999;28;20053;-64
2022/06/24 06:18:49;;;;;;;6.43;3.22;;;;;;;;;;5021269;28;20542;-64
2022/06/24 06:21:16;;;;;;;5.97;3.30;;;;;;;;;;5036295;28;21123;-63
2022/06/24 06:23:42;;;;;;;4.75;3.20;;;;;;;;;;5033606;28;20141;-63
2022/06/24 06:26:10;;;;;;;6.85;3.45;;;;;;;;;;5040058;28;20512;-64
2022/06/24 06:28:37;;;;;;;7.93;3.60;;;;;;;;;;5031542;28;20136;-64
2022/06/24 06:31:03;;;;;;;7.72;4.25;;;;;;;;;;5027857;28;20182;-65
2022/06/24 06:33:36;;;;;;;9.02;4.95;;;;;;;;;;5034506;28;20053;-64
2022/06/24 06:36:11;;;;;;;9.02;4.68;;;;;;;;;;5031364;28;20132;-65
2022/06/24 06:38:38;;;;;;;12.00;5.72;;;;;;;;;;5050503;28;20049;-64
2022/06/24 06:41:11;;;;;;;11.00;5.28;;;;;;;;;;5026148;28;20595;-64
2022/06/24 06:43:38;;;;;;;12.30;5.50;;;;;;;;;;5033396;28;20450;-64
2022/06/24 06:46:07;;;;;;;7.18;5.80;;;;;;;;;;5016611;28;20455;-63
2022/06/24 06:48:34;;;;;;;10.98;5.20;;;;;;;;;;5028309;28;20053;-63
2022/06/24 06:51:00;;;;;;;9.38;5.32;;;;;;;;;;5041935;28;20098;-64
2022/06/24 06:53:27;;;;;;;9.63;4.95;;;;;;;;;;5032069;28;20060;-62
2022/06/24 06:55:54;;;;;;;10.73;5.97;;;;;;;;;;5041586;28;20148;-64
2022/06/24 06:58:21;;;;;;;11.13;6.00;;;;;;;;;;5022134;28;20052;-64
2022/06/24 07:00:48;;;;;;;8.63;5.00;;;;;;;;;;5026364;28;20077;-63
2022/06/24 07:03:15;;;;;;;7.10;4.50;;;;;;;;;;5038998;28;20059;-64
2022/06/24 07:05:42;;;;;;;9.55;4.50;;;;;;;;;;5023764;28;20321;-64
2022/06/24 07:08:12;;;;;;;9.60;5.18;;;;;;;;;;5041413;28;20095;-64
2022/06/24 07:10:39;;;;;;;6.57;4.57;;;;;;;;;;5033594;28;20498;-64
2022/06/24 07:13:05;;;;;;;10.40;4.80;;;;;;;;;;5024423;28;20051;-68
2022/06/24 07:15:32;;;;;;;11.00;5.53;;;;;;;;;;5017505;28;20079;-65
2022/06/24 07:17:58;;;;;;;9.00;4.88;;;;;;;;;;5030332;28;20045;-64
2022/06/24 07:20:25;;;;;;;8.02;5.10;;;;;;;;;;5025009;28;20042;-65
2022/06/24 07:22:51;;;;;;;7.63;4.72;;;;;;;;;;5021217;28;20083;-64
2022/06/24 07:25:18;;;;;;;8.38;4.95;;;;;;;;;;5023933;28;20728;-64
2022/06/24 07:27:44;;;;;;;9.65;4.75;;;;;;;;;;5023558;28;20501;-64
2022/06/24 07:30:11;;;;;;;8.35;4.90;;;;;;;;;;5044026;28;20050;-65
2022/06/24 07:32:38;;;;;;;7.80;5.07;;;;;;;;;;5028216;28;20049;-64
2022/06/24 07:35:04;;;;;;;7.03;5.15;;;;;;;;;;5043845;28;20358;-65
2022/06/24 07:37:31;;;;;;;10.98;5.20;;;;;;;;;;5034533;28;20101;-64
2022/06/24 07:39:57;;;;;;;6.40;4.82;;;;;;;;;;5029549;28;20075;-64
2022/06/24 07:42:24;;;;;;;6.68;4.72;;;;;;;;;;5034946;28;20044;-64
2022/06/24 07:44:50;;;;;;;7.85;4.82;;;;;;;;;;5032596;28;20071;-64
2022/06/24 07:47:16;;;;;;;9.65;5.60;;;;;;;;;;5033631;28;20303;-64
2022/06/24 07:49:42;;;;;;;6.78;4.75;;;;;;;;;;5023177;28;20490;-64
2022/06/24 07:52:09;;;;;;;9.88;4.88;;;;;;;;;;5025662;28;20143;-64
2022/06/24 07:54:36;;;;;;;7.35;5.40;;;;;;;;;;5016226;28;20060;-64
2022/06/24 07:57:03;;;;;;;8.82;5.63;;;;;;;;;;5027953;28;20057;-64
2022/06/24 07:59:31;;;;;;;9.40;5.38;;;;;;;;;;5039059;28;20041;-63
2022/06/24 08:01:58;;;;;;;6.32;5.72;;;;;;;;;;5027401;28;20048;-64
2022/06/24 08:04:25;;;;;;;7.93;5.93;;;;;;;;;;5026827;28;20055;-64
2022/06/24 08:06:52;;;;;;;10.95;6.45;;;;;;;;;;5027135;28;20049;-63
2022/06/24 08:09:19;;;;;;;10.90;6.50;;;;;;;;;;5021237;28;20057;-63
2022/06/24 08:11:46;;;;;;;8.45;6.70;;;;;;;;;;5023919;28;20080;-64
2022/06/24 08:14:13;;;;;;;9.43;6.35;;;;;;;;;;5032354;28;20049;-64
2022/06/24 08:16:40;;;;;;;8.60;6.70;;;;;;;;;;5038248;28;20044;-64
2022/06/24 08:19:13;;;;;;;9.18;7.45;;;;;;;;;;5026174;28;20126;-63
2022/06/24 08:21:39;;;;;;;7.93;6.93;;;;;;;;;;5032476;28;20080;-64
2022/06/24 08:24:05;;;;;;;9.80;8.13;;;;;;;;;;5038710;28;20045;-64
2022/06/24 08:26:32;;;;;;;8.75;7.20;;;;;;;;;;5029983;28;20127;-65
2022/06/24 08:28:59;;;;;;;8.50;7.18;;;;;;;;;;5036494;28;20491;-64
2022/06/24 08:31:25;;;;;;;9.15;7.45;;;;;;;;;;5029049;28;20479;-64
2022/06/24 08:33:52;;;;;;;11.25;7.93;;;;;;;;;;5041412;28;20052;-64
2022/06/24 08:36:18;;;;;;;8.35;7.38;;;;;;;;;;5009761;28;20045;-63
2022/06/24 08:38:46;;;;;;;9.05;7.65;;;;;;;;;;5047037;28;20507;-64
2022/06/24 08:41:13;;;;;;;10.10;7.88;;;;;;;;;;5042856;28;20048;-65
2022/06/24 08:43:39;;;;;;;10.45;9.15;;;;;;;;;;5035370;28;20051;-65
2022/06/24 08:46:06;;;;;;;13.45;10.25;;;;;;;;;;5038583;28;20045;-64
2022/06/24 08:48:35;;;;;;;15.60;11.45;;;;;;;;;;5026588;28;20480;-66
2022/06/24 08:51:02;;;;;;;12.73;10.73;;;;;;;;;;5024752;28;20439;-64
2022/06/24 08:53:29;;;;;;;10.60;9.50;;;;;;;;;;5021092;28;20041;-64
2022/06/24 08:55:55;;;;;;;13.25;9.13;;;;;;;;;;5033374;28;20071;-64
2022/06/24 08:58:22;;;;;;;10.57;8.73;;;;;;;;;;5042523;28;20049;-64
2022/06/24 09:00:48;;;;;;;11.20;8.50;;;;;;;;;;5035447;28;20049;-64
2022/06/24 09:03:15;;;;;;;10.52;8.25;;;;;;;;;;5030680;28;20165;-64
2022/06/24 09:05:41;;;;;;;11.27;9.07;;;;;;;;;;5024264;28;20136;-64
2022/06/24 09:08:09;;;;;;;8.82;7.93;;;;;;;;;;5038926;28;20624;-64
2022/06/24 09:10:36;;;;;;;9.27;8.25;;;;;;;;;;5027599;28;20501;-64
2022/06/24 09:13:18;;;;;;;8.95;7.50;;;;;;;;;;5029683;28;20130;-64
2022/06/24 09:15:50;;;;;;;8.77;7.85;;;;;;;;;;5034981;28;20044;-64
2022/06/24 09:18:20;;;;;;;10.75;8.23;;;;;;;;;;5018266;28;20350;-64
2022/06/24 09:20:48;;;;;;;7.15;6.28;;;;;;;;;;5026102;28;20045;-64
2022/06/24 09:23:14;;;;;;;8.40;6.18;;;;;;;;;;5015915;28;20050;-64
2022/06/24 09:25:41;;;;;;;8.88;6.10;;;;;;;;;;5040777;28;20044;-64
2022/06/24 09:28:07;;;;;;;9.02;7.20;;;;;;;;;;5032558;28;20060;-63
2022/06/24 09:30:35;;;;;;;8.55;6.93;;;;;;;;;;5037773;28;20059;-64
2022/06/24 09:33:01;;;;;;;7.97;7.18;;;;;;;;;;5034160;28;20135;-64
2022/06/24 09:35:47;;;;;;;13.05;8.52;;;;;;;;;;5031249;28;20053;-64
2022/06/24 09:38:14;;;;;;;10.18;7.43;;;;;;;;;;5024378;28;20057;-64
2022/06/24 09:40:41;;;;;;;8.98;7.93;;;;;;;;;;5028191;28;20053;-65
2022/06/24 09:43:09;;;;;;;9.53;7.83;;;;;;;;;;5037928;28;20052;-64
2022/06/24 09:45:45;;;;;;;10.07;7.28;;;;;;;;;;5022540;28;20352;-64
2022/06/24 09:48:29;;;;;;;8.52;7.45;;;;;;;;;;5032395;28;20053;-63
2022/06/24 09:50:56;;;;;;;9.32;7.82;;;;;;;;;;5027033;28;20587;-64
2022/06/24 09:53:27;;;;;;;11.93;9.13;;;;;;;;;;5017447;28;20037;-65
2022/06/24 09:55:53;;;;;;;10.75;8.80;;;;;;;;;;5033359;28;20045;-64
2022/06/24 09:58:21;;;;;;;10.93;9.00;;;;;;;;;;5025705;28;20051;-64
2022/06/24 10:00:48;;;;;;;10.23;8.52;;;;;;;;;;5029277;28;20045;-64
2022/06/24 10:03:15;;;;;;;12.07;8.55;;;;;;;;;;5015722;28;20056;-64
2022/06/24 10:05:43;;;;;;;10.02;8.82;;;;;;;;;;5017063;28;20049;-64
2022/06/24 10:08:09;;;;;;;;;;;;;;;;;;5040483;28;20131;-64
2022/06/24 10:10:38;;;;;;;11.80;9.55;;;;;;;;;;5034330;28;19924;-64
2022/06/24 10:13:07;;;;;;;12.15;10.95;;;;;;;;;;5030479;28;20056;-64
2022/06/24 10:15:34;;;;;;;15.20;11.60;;;;;;;;;;5010989;28;20056;-64
2022/06/24 10:18:06;;;;;;;12.77;11.02;;;;;;;;;;5025158;28;20057;-64
2022/06/24 10:20:34;;;;;;;14.52;12.27;;;;;;;;;;5033947;28;20059;-65
2022/06/24 10:23:00;;;;;;;13.10;11.77;;;;;;;;;;5037851;28;20052;-64
2022/06/24 10:25:49;;;;;;;12.27;11.07;;;;;;;;;;5033551;28;20670;-64
2022/06/24 10:28:16;;;;;;;12.00;10.85;;;;;;;;;;5019961;28;20131;-64
2022/06/24 10:30:45;;;;;;;12.80;11.48;;;;;;;;;;5033306;28;20055;-64
2022/06/24 10:33:18;;;;;;;12.82;11.48;;;;;;;;;;5019070;28;20532;-64
2022/06/24 10:35:55;;;;;;;15.02;11.95;;;;;;;;;;5034280;28;20049;-64
2022/06/24 10:38:22;;;;;;;13.85;11.70;;;;;;;;;;5020608;28;20380;-64
2022/06/24 10:40:49;;;;;;;14.35;12.85;;;;;;;;;;5026822;28;20145;-65
2022/06/24 10:43:34;;;;;;;15.48;12.85;;;;;;;;;;5030523;28;20042;-64
2022/06/24 10:46:13;;;;;;;15.30;13.35;;;;;;;;;;5019300;28;20053;-64
2022/06/24 10:48:43;;;;;;;14.85;12.90;;;;;;;;;;5034009;28;20353;-64
2022/06/24 10:51:15;;;;;;;14.70;13.30;;;;;;;;;;5026539;28;20135;-65
2022/06/24 10:54:00;;;;;;;14.68;12.48;;;;;;;;;;5025086;28;20477;-65
2022/06/24 10:56:38;;;;;;;13.93;12.45;;;;;;;;;;5012072;28;20431;-65
2022/06/24 10:59:05;;;;;;;11.45;10.35;;;;;;;;;;5040369;28;20055;-65
2022/06/24 11:01:32;;;;;;;14.55;12.38;;;;;;;;;;5031862;28;20052;-64
2022/06/24 11:04:03;;;;;;;14.73;12.68;;;;;;;;;;5031588;28;20512;-64
2022/06/24 11:06:29;;;;;;;14.27;12.88;;;;;;;;;;5020570;28;20132;-64
2022/06/24 11:09:03;;;;;;;12.98;11.68;;;;;;;;;;5026485;28;20057;-64
2022/06/24 11:11:30;;;;;;;15.60;12.52;;;;;;;;;;5048608;28;20072;-64
2022/06/24 11:13:56;;;;;;;13.27;11.98;;;;;;;;;;5030799;28;20049;-66
2022/06/24 11:16:27;;;;;;;13.48;10.88;;;;;;;;;;5031239;28;20126;-65
2022/06/24 11:18:54;;;;;;;11.10;10.00;;;;;;;;;;5029538;28;20050;-64
2022/06/24 11:21:20;;;;;;;10.23;8.50;;;;;;;;;;5014956;28;20045;-64
2022/06/24 11:23:47;;;;;;;9.38;8.27;;;;;;;;;;5021559;28;20119;-64
2022/06/24 11:26:18;;;;;;;9.95;8.90;;;;;;;;;;5031237;28;20575;-64
2022/06/24 11:28:55;;;;;;;9.60;7.63;;;;;;;;;;5036082;28;20131;-64
2022/06/24 11:31:25;;;;;;;8.47;7.63;;;;;;;;;;5026415;28;20053;-65
2022/06/24 11:34:07;;;;;;;8.15;6.65;;;;;;;;;;5027225;28;20136;-64
2022/06/24 11:36:34;;;;;;;8.63;6.38;;;;;;;;;;5018627;28;20041;-64
2022/06/24 11:39:02;;;;;;;9.70;6.75;;;;;;;;;;5032257;28;20520;-65
2022/06/24 11:41:29;;;;;;;7.55;6.38;;;;;;;;;;5035553;28;20103;-64
2022/06/24 11:44:15;;;;;;;8.10;5.95;;;;;;;;;;5038960;28;20076;-65
2022/06/24 11:46:49;;;;;;;8.18;5.88;;;;;;;;;;5043933;28;20448;-65
2022/06/24 11:49:15;;;;;;;10.57;5.85;;;;;;;;;;5027787;28;21440;-65
2022/06/24 11:51:44;;;;;;;7.85;6.20;;;;;;;;;;5024819;28;21193;-65
2022/06/24 11:54:11;;;;;;;10.43;7.50;;;;;;;;;;5033980;28;20045;-64
2022/06/24 11:56:39;;;;;;;8.37;7.20;;;;;;;;;;5039963;28;20047;-65
2022/06/24 11:59:06;;;;;;;8.18;6.95;;;;;;;;;;5031330;28;20072;-65
2022/06/24 12:01:33;;;;;;;8.68;6.43;;;;;;;;;;5033567;28;20041;-65
2022/06/24 12:04:00;;;;;;;7.18;5.93;;;;;;;;;;5039798;28;20143;-65
2022/06/24 12:06:28;;;;;;;7.25;6.55;;;;;;;;;;5029316;28;20059;-64
2022/06/24 12:08:54;;;;;;;8.60;7.70;;;;;;;;;;5043501;28;20100;-64
2022/06/24 12:11:22;;;;;;;10.73;9.35;;;;;;;;;;5033963;28;20160;-64
2022/06/24 12:14:15;;;;;;;11.15;9.60;;;;;;;;;;5029983;28;20080;-65
2022/06/24 12:16:55;;;;;;;9.80;8.93;;;;;;;;;;5027220;28;20937;-65
2022/06/24 12:19:22;;;;;;;11.52;10.32;;;;;;;;;;5034261;28;20052;-65
2022/06/24 12:21:49;;;;;;;11.10;10.00;;;;;;;;;;5032443;28;20602;-65
2022/06/24 12:24:19;;;;;;;11.23;10.13;;;;;;;;;;5034712;28;20105;-65
2022/06/24 12:26:45;;;;;;;12.18;10.98;;;;;;;;;;5040319;28;20049;-65
2022/06/24 12:29:11;;;;;;;11.73;10.15;;;;;;;;;;5034281;28;20412;-65
2022/06/24 12:31:49;;;;;;;10.77;9.68;;;;;;;;;;5036025;28;20056;-64
2022/06/24 12:34:23;;;;;;;12.73;11.63;;;;;;;;;;5024036;28;20471;-65
2022/06/24 12:36:54;;;;;;;10.85;9.85;;;;;;;;;;5041816;28;20300;-65
2022/06/24 12:39:26;;;;;;;9.30;8.40;;;;;;;;;;5035333;28;20059;-65
2022/06/24 12:41:52;;;;;;;8.50;7.70;;;;;;;;;;5028271;28;20160;-65
2022/06/24 12:44:18;;;;;;;8.95;6.55;;;;;;;;;;5039299;28;20445;-65
2022/06/24 12:52:29;;;;;;;6.95;6.20;;;;;;;;;;5037143;28;20084;-64
2022/06/24 12:54:55;;;;;;;8.27;7.47;;;;;;;;;;5035202;28;20057;-66
2022/06/24 12:57:23;;;;;;;9.13;8.10;;;;;;;;;;5033536;28;20053;-64
2022/06/24 12:59:49;;;;;;;10.77;9.77;;;;;;;;;;5037759;28;20048;-65
2022/06/24 13:02:16;;;;;;;9.10;8.20;;;;;;;;;;5026039;28;20144;-66
2022/06/24 13:04:42;;;;;;;9.13;8.23;;;;;;;;;;5035754;28;20053;-65
2022/06/24 13:07:08;;;;;;;7.28;6.57;;;;;;;;;;5035731;28;20084;-64
2022/06/24 13:09:35;;;;;;;8.02;7.30;;;;;;;;;;5029295;28;20079;-64
2022/06/24 13:12:02;;;;;;;9.85;8.95;;;;;;;;;;5011297;28;20045;-65
2022/06/24 13:14:29;;;;;;;7.57;6.68;;;;;;;;;;5037510;28;20048;-64
2022/06/24 13:16:55;;;;;;;5.38;4.88;;;;;;;;;;5038933;28;20048;-65
2022/06/24 13:19:27;;;;;;;7.57;6.88;;;;;;;;;;5046549;28;20041;-64
2022/06/24 13:21:53;;;;;;;4.93;4.43;;;;;;;;;;5035451;28;20053;-65
2022/06/24 13:24:19;;;;;;;4.50;4.10;;;;;;;;;;5042681;28;20742;-65
2022/06/24 13:26:47;;;;;;;3.40;3.10;;;;;;;;;;5016009;28;20072;-64
2022/06/24 13:29:13;;;;;;;3.35;2.22;;;;;;;;;;5017760;28;20092;-64
2022/06/24 13:31:41;;;;;;;3.58;3.03;;;;;;;;;;5038459;28;20132;-65
2022/06/24 13:34:08;;;;;;;3.85;3.22;;;;;;;;;;5034200;28;20091;-64
2022/06/24 13:36:34;;;;;;;4.55;4.13;;;;;;;;;;5033256;28;20440;-65
2022/06/24 13:39:00;;;;;;;3.92;3.53;;;;;;;;;;5030319;28;20132;-65
2022/06/24 13:41:27;;;;;;;2.70;2.50;;;;;;;;;;5031830;28;20045;-65
2022/06/24 13:43:53;;;;;;;3.05;2.13;;;;;;;;;;5026135;28;20053;-65
2022/06/24 13:46:20;;;;;;;3.15;2.08;;;;;;;;;;5037642;28;20406;-65
2022/06/24 13:48:46;;;;;;;2.17;1.98;;;;;;;;;;5042893;28;20060;-65
2022/06/24 13:51:13;;;;;;;3.33;2.17;;;;;;;;;;5029405;28;20049;-65
2022/06/24 13:53:39;;;;;;;3.05;2.10;;;;;;;;;;5033077;28;20041;-65
2022/06/24 13:56:06;;;;;;;3.00;2.17;;;;;;;;;;5002261;28;20449;-65
2022/06/24 13:58:35;;;;;;;2.75;1.83;;;;;;;;;;5041278;28;20049;-65
2022/06/24 14:01:02;;;;;;;2.42;2.22;;;;;;;;;;5037604;28;20057;-65
2022/06/24 14:03:28;;;;;;;2.17;1.97;;;;;;;;;;5035669;28;20048;-65
2022/06/24 14:05:56;;;;;;;1.77;1.67;;;;;;;;;;5032295;28;20080;-65
2022/06/24 14:08:22;;;;;;;;;;;;;;;;;;5025897;28;20082;-65
2022/06/24 14:10:49;;;;;;;1.70;1.50;;;;;;;;;;5021250;28;19925;-65
2022/06/24 14:13:20;;;;;;;1.60;1.48;;;;;;;;;;5028835;28;20128;-65
2022/06/24 14:15:46;;;;;;;8.88;1.40;;;;;;;;;;5041383;28;20488;-65
2022/06/24 14:18:13;;;;;;;1.98;1.40;;;;;;;;;;5041132;28;20572;-65
2022/06/24 14:20:40;;;;;;;1.40;1.30;;;;;;;;;;5029245;28;20141;-65
2022/06/24 14:25:52;;;;;;;2.15;1.60;;;;;;;;;;5021092;28;20053;-66
2022/06/24 14:28:18;;;;;;;2.25;1.45;;;;;;;;;;5037084;28;20771;-65
2022/06/24 14:30:44;;;;;;;1.65;1.50;;;;;;;;;;5027763;28;20049;-66
2022/06/24 14:33:11;;;;;;;1.85;1.30;;;;;;;;;;5036379;28;20072;-65
2022/06/24 14:35:38;;;;;;;2.50;1.80;;;;;;;;;;5030567;28;20045;-65
2022/06/24 14:40:50;;;;;;;1.38;1.27;;;;;;;;;;5023733;28;20513;-65
2022/06/24 14:43:22;;;;;;;1.23;1.13;;;;;;;;;;5032172;28;20049;-65
2022/06/24 14:45:51;;;;;;;2.50;1.25;;;;;;;;;;5037511;28;20076;-66
2022/06/24 14:48:18;;;;;;;3.70;1.27;;;;;;;;;;5024387;28;20155;-66
2022/06/24 14:50:45;;;;;;;1.30;1.02;;;;;;;;;;5033587;28;20458;-65
2022/06/24 14:53:11;;;;;;;1.33;1.10;;;;;;;;;;5031360;28;20053;-65
2022/06/24 14:55:38;;;;;;;1.75;1.10;;;;;;;;;;5034706;28;20136;-65
2022/06/24 14:58:04;;;;;;;1.42;1.10;;;;;;;;;;5041612;28;20088;-65